Date,TemperatureHighF,TemperatureAvgF,TemperatureLowF,DewpointHighF,DewpointAvgF,DewpointLowF,HumidityHigh,HumidityAvg,HumidityLow,PressureMaxIn,PressureMinIn,WindSpeedMaxMPH,WindSpeedAvgMPH,GustSpeedMaxMPH,PrecipitationSumIn
2013-4-1,74.8,63.1,53.4,58.1,53.6,49.4,94,74,41,30.03,29.87,12,4,0,0.00
2013-4-2,60.4,58.3,54.5,52.8,51.1,48.6,87,77,72,30.03,29.96,8,6,0,0.00
2013-4-3,61.3,57.0,51.4,58.9,52.4,47.1,93,85,77,30.01,29.67,30,9,0,0.61
2013-4-4,53.2,50.2,47.7,48.1,45.7,41.1,93,85,75,30.01,29.85,17,7,0,0.00
2013-4-5,67.6,55.4,47.1,48.7,43.7,41.0,83,66,44,30.13,30.00,19,7,0,0.00
2013-4-6,54.1,49.1,48.2,45.8,45.6,43.6,90,88,69,30.06,30.03,6,1,0,0.00
2013-4-7,48.6,48.6,48.6,45.8,45.8,45.8,90,90,90,30.03,30.03,1,1,0,0.00
2013-4-8,48.6,48.6,48.6,45.8,45.8,45.8,90,90,90,30.03,30.03,1,1,0,0.00
2013-4-9,48.6,48.6,48.6,45.8,45.8,45.8,90,90,90,30.03,30.03,1,1,0,0.00
2013-4-10,73.0,66.3,48.6,67.2,61.3,45.8,90,84,82,30.03,29.77,21,16,0,0.00
2013-4-11,73.0,62.3,52.7,67.2,56.3,47.5,91,81,69,29.78,29.62,27,13,0,1.69
2013-4-12,73.4,59.6,45.9,49.6,44.2,36.0,93,62,27,29.94,29.78,13,4,0,0.00
2013-4-13,77.2,65.8,54.7,50.7,44.3,37.7,70,48,27,29.97,29.77,18,7,0,0.00
2013-4-14,73.4,64.6,55.6,63.0,58.3,48.2,92,81,56,29.82,29.66,21,8,0,1.68
2013-4-15,77.9,71.1,63.7,71.8,66.3,61.0,93,85,73,29.88,29.74,17,8,0,0.00
2013-4-16,82.8,76.6,72.9,71.4,70.3,68.3,92,82,64,29.99,29.86,20,11,0,0.08
2013-4-17,83.7,77.1,72.0,70.9,69.4,67.0,91,78,61,29.99,29.82,27,12,0,0.00
2013-4-18,82.8,74.6,54.1,69.6,66.3,49.3,89,76,59,29.86,29.67,29,15,0,0.20
2013-4-19,58.5,53.5,46.9,51.1,39.0,34.0,89,60,42,30.10,29.84,29,12,0,0.00
2013-4-20,68.7,59.7,43.9,46.9,38.1,30.1,87,46,30,30.20,30.02,18,7,0,0.00
2013-4-21,72.7,60.8,48.6,50.4,43.5,36.6,84,57,28,30.11,30.03,14,4,0,0.00
2013-4-22,78.3,65.6,51.6,62.8,50.6,42.5,90,63,31,30.07,29.92,17,6,0,0.00
2013-4-23,82.4,73.1,66.7,66.6,63.7,60.3,88,74,50,29.99,29.87,23,10,0,0.00
2013-4-24,70.5,63.1,55.2,66.8,58.2,48.8,93,84,73,30.14,29.90,21,9,0,1.10
2013-4-25,70.7,60.2,51.1,50.6,46.5,38.4,88,63,33,30.26,30.14,18,8,0,0.00
2013-4-26,77.0,67.4,56.8,63.4,54.7,44.3,85,64,47,30.19,30.10,16,7,0,0.00
2013-4-27,81.1,72.5,65.3,67.2,63.2,58.3,94,75,48,30.11,29.94,18,7,0,0.00
2013-4-28,74.8,70.6,64.2,67.4,63.8,58.8,91,80,64,29.98,29.86,15,6,0,0.04
2013-4-29,82.2,70.4,58.3,63.8,58.3,48.9,94,69,32,29.91,29.79,10,3,0,0.00
2013-4-30,74.7,68.5,64.0,66.8,64.2,60.7,94,86,76,29.84,29.75,27,6,0,0.63